Terminal Aerodrome Forecast
Issued by NWS Shreveport, LA

Home | Current Version | Previous Version | Text Only | Print | Product List | Glossary On
Versions: 1 2 3 4 5 6 7 8 9 10 11 12 13 14 15 16 17 18 19 20 21 22
000
FTUS44 KSHV 251141
TAFMLU
TAF
KMLU 251141Z 2512/2612 17005KT P6SM BKN005 BKN025
      TEMPO 2512/2515 6SM BR SCT010 BKN025
     FM251500 20010KT P6SM SCT030
     FM251800 23015G25KT P6SM SCT040
     FM260000 21005KT P6SM SKC=

USA.gov is the U.S. government's official web portal to all federal, state and local government web resources and services.